Home > Products > Valid Products > MTR

000
SAUS45 KLKN 241155
MTRP68
METAR KP68 241153Z AUTO 12005KT 03/M06 A3018 RMK AO1 SLP173
T00331061 10094 20028 53003 $





000
SAUS45 KLKN 241055
MTRP68
METAR KP68 241053Z AUTO 34003KT 03/M07 A3017 RMK AO1 SLP168
T00331072 $





000
SAUS45 KLKN 241055
MTRP68
METAR KP68 241053Z AUTO 34003KT 03/M07 A3017 RMK AO1 SLP168
T00331072 $





000
SAUS45 KLKN 240955
MTRP68
METAR KP68 240953Z AUTO 03003KT 06/M06 A3017 RMK AO1 SLP161
T00561056 $





000
SAUS45 KLKN 240855
MTRP68
METAR KP68 240853Z AUTO 00000KT 04/M07 A3017 RMK AO1 SLP163
T00391067 53004 $





000
SAUS45 KLKN 240755
MTRP68
METAR KP68 240753Z AUTO 00000KT 08/M06 A3016 RMK AO1 SLP153
T00781056 402280028 $





000
SAUS45 KLKN 240655
MTRP68
METAR KP68 240653Z AUTO 00000KT 08/M06 A3015 RMK AO1 SLP154
T00781061 $





000
SAUS45 KLKN 240555
MTRP68
METAR KP68 240553Z AUTO 00000KT 08/M06 A3015 RMK AO1 SLP154
T00781056 10194 20067 51010 $





000
SAUS45 KLKN 240454
MTRP68
METAR KP68 240453Z AUTO 13006KT 09/M05 A3015 RMK AO1 SLP154
T00941050 $





000
SAUS45 KLKN 240454
MTRP68
METAR KP68 240453Z AUTO 13006KT 09/M05 A3015 RMK AO1 SLP154
T00941050 $





000
SAUS45 KLKN 240354
MTRP68
METAR KP68 240353Z AUTO 19004KT 13/M06 A3013 RMK AO1 SLP153
T01331056 $





000
SAUS45 KLKN 240354
MTRP68
METAR KP68 240353Z AUTO 19004KT 13/M06 A3013 RMK AO1 SLP153
T01331056 $





000
SAUS45 KLKN 240254
MTRP68
METAR KP68 240253Z AUTO 21003KT 16/M06 A3012 RMK AO1 SLP151
T01561061 $





000
SAUS45 KLKN 240254
MTRP68
METAR KP68 240253Z AUTO 21003KT 16/M06 A3012 RMK AO1 SLP151
T01561061 $





000
SAUS45 KLKN 240155
MTRP68
METAR KP68 240153Z AUTO 24003KT 16/M06 A3012 RMK AO1 SLP155
T01561056 $





000
SAUS45 KLKN 240155
MTRP68
METAR KP68 240153Z AUTO 24003KT 16/M06 A3012 RMK AO1 SLP155
T01561056 $





000
SAUS45 KLKN 240059 COR
MTRP68
METAR KP68 240053Z AUTO 17012KT 18/M06 A3009 RMK AO1 SLP137
T01781061





000
SAUS45 KLKN 240056
MTRP68
METAR KP68 240053Z AUTO 17012KT 18/M06 A3009 RMK AO1 SLP137
T01781`R~wyj?13f3f3ff3f3f3f3f3f3f3f3f34,0gsw[#D"D"D"D"D"D"D"D"D"
REQ RNOMTRP68





000
SAUS45 KLKN 232355
MTRP68
METAR KP68 232353Z AUTO 16008KT 19/M06 A3010 RMK AO1 SLP135
T01891061 10228 20189 53002





000
SAUS45 KLKN 232254
MTRP68
METAR KP68 232253Z AUTO 16013KT 19/M06 A3009 RMK AO1 SLP135
T01941056





000
SAUS45 KLKN 232154
MTRP68
METAR KP68 232153Z AUTO 16016KT 21/M06 A3009 RMK AO1 SLP131
T02111061





000
SAUS45 KLKN 232154
MTRP68
METAR KP68 232153Z AUTO 16016KT 21/M06 A3009 RMK AO1 SLP131
T02111061





000
SAUS45 KLKN 232054
MTRP68
METAR KP68 232053Z AUTO 16017KT 22/M06 A3009 RMK AO1 SLP129
T02171061 58022





000
SAUS45 KLKN 231954
MTRP68
METAR KP68 231953Z AUTO 27007KT 22/M08 A3012 RMK AO1 SLP140
T02171078





000
SAUS45 KLKN 231954
MTRP68
METAR KP68 231953Z AUTO 27007KT 22/M08 A3012 RMK AO1 SLP140
T02171078





000
SAUS45 KLKN 231854
MTRP68
METAR KP68 231853Z AUTO 00000KT 20/M08 A3015 RMK AO1 SLP152
T02001078





000
SAUS45 KLKN 231854
MTRP68
METAR KP68 231853Z AUTO 00000KT 20/M08 A3015 RMK AO1 SLP152
T02001078





000
SAUS45 KLKN 231758 COR
MTRP68
METAR KP68 231753Z AUTO 00000KT 20/M08 A3017 RMK AO1 SLP160
T02001078 10200 20028 50001





000
SAUS45 KLKN 231758 COR
MTRP68
METAR KP68 231753Z AUTO 00000KT 20/M08 A3017 RMK AO1 SLP160
T02001078 10200 20028 50001





000
SAUS45 KLKN 231756 COR
MTRP68
METAR KP68 231753Z AUTO 00000KT 20/M08 A3017 RMK AO1 SLP160
T02001078 10200 20028 50001





000
SAUS45 KLKN 231756 COR
MTRP68
METAR KP68 231753Z AUTO 00000KT 20/M08 A3017 RMK AO1 SLP160
T02001078 10200 20028 50001





000
SAUS45 KLKN 231655
MTRP68
METAR KP68 231653Z AUTO 00000KT 17/M07 A3018 RMK AO1 SLP169
T01671072





000
SAUS45 KLKN 231655
MTRP68
METAR KP68 231653Z AUTO 00000KT 17/M07 A3018 RMK AO1 SLP169
T01671072





000
SAUS45 KLKN 231555
MTRP68
METAR KP68 231553Z AUTO 21004KT 12/M07 A3018 RMK AO1 SLP180
T01171067





000
SAUS45 KLKN 231455
MTRP68
METAR KP68 231453Z AUTO 19003KT 08/M06 A3017 RMK AO1 SLP181
T00781061 53005





000
SAUS45 KLKN 231455
MTRP68
METAR KP68 231453Z AUTO 19003KT 08/M06 A3017 RMK AO1 SLP181
T00781061 53005





000
SAUS45 KLKN 231354
MTRP68
METAR KP68 231353Z AUTO 24004KT 03/M08 A3016 RMK AO1 SLP183
T00331078





000
SAUS45 KLKN 231255
MTRP68
METAR KP68 231253Z AUTO 22006KT 07/M08 A3015 RMK AO1 SLP166
T00721078





000
SAUS45 KLKN 231154
MTRP68
METAR KP68 231153Z AUTO 23007KT 08/M08 A3015 RMK AO1 SLP153
T00831078 10111 20061 55002





000
SAUS45 KLKN 231054
MTRP68
METAR KP68 231053Z AUTO 22005KT 07/M08 A3014 RMK AO1 SLP152
T00721078





000
SAUS45 KLKN 230954
MTRP68
METAR KP68 230953Z AUTO 20003KT 07/M08 A3014 RMK AO1 SLP155
T00671078





000
SAUS45 KLKN 230954
MTRP68
METAR KP68 230953Z AUTO 20003KT 07/M08 A3014 RMK AO1 SLP155
T00671078





000
SAUS45 KLKN 230854
MTRP68
METAR KP68 230853Z AUTO 18005KT 08/M08 A3016 RMK AO1 SLP159
T00781078 58000





000
SAUS45 KLKN 230754
MTRP68
METAR KP68 230753Z AUTO 17003KT 07/M08 A3016 RMK AO1 SLP166
T00671078 402001033





000
SAUS45 KLKN 230655
MTRP68
METAR KP68 230653Z AUTO 18007KT 08/M07 A3016 RMK AO1 SLP167
T00781072





000
SAUS45 KLKN 230554
MTRP68
METAR KP68 230553Z AUTO 18005KT 08/M08 A3016 RMK AO1 SLP170
T00781078 10189 20050 53005





000
SAUS45 KLKN 230554
MTRP68
METAR KP68 230553Z AUTO 18005KT 08/M08 A3016 RMK AO1 SLP170
T00781078 10189 20050 53005





000
SAUS45 KLKN 230457 COR
MTRP68
METAR KP68 230453Z AUTO 20005KT 07/M07 A3014 RMK AO1 SLP173
T00721072





000
SAUS45 KLKN 230457 COR
MTRP68
METAR KP68 230453Z AUTO 20005KT 07/M07 A3014 RMK AO1 SLP173
T00721072





000
SAUS45 KLKN 230354
MTRP68
METAR KP68 230353Z AUTO 19004KT 07/M07 A3014 RMK AO1 SLP182
T00671067





000
SAUS45 KLKN 230354
MTRP68
METAR KP68 230353Z AUTO 19004KT 07/M07 A3014 RMK AO1 SLP182
T00671067





000
SAUS45 KLKN 230254
MTRP68
METAR KP68 230253Z AUTO 16003KT 08/M06 A3014 RMK AO1 SLP186
T00831056 51002





000
SAUS45 KLKN 230155
MTRP68
METAR KP68 230153Z AUTO 15008KT 10/M05 A3014 RMK AO1 SLP192
T01001050





000
SAUS45 KLKN 230155
MTRP68
METAR KP68 230153Z AUTO 15008KT 10/M05 A3014 RMK AO1 SLP192
T01001050





000
SAUS45 KLKN 230054
MTRP68
METAR KP68 230053Z AUTO 08003KT 14/M03 A3014 RMK AO1 SLP176
T01391033





000
SAUS45 KLKN 230054
MTRP68
METAR KP68 230053Z AUTO 08003KT 14/M03 A3014 RMK AO1 SLP176
T01391033





000
SAUS45 KLKN 222355
MTRP68
METAR KP68 222353Z AUTO 04006KT 19/M05 A3013 RMK AO1 SLP164
T01891050 10200 20117 55002





000
SAUS45 KLKN 222355
MTRP68
METAR KP68 222353Z AUTO 04006KT 19/M05 A3013 RMK AO1 SLP164
T01891050 10200 20117 55002





000
SAUS45 KLKN 222254
MTRP68
METAR KP68 222253Z AUTO VRB03KT 19/M06 A3013 RMK AO1 SLP161
T01941056





000
SAUS45 KLKN 222254
MTRP68
METAR KP68 222253Z AUTO VRB03KT 19/M06 A3013 RMK AO1 SLP161
T01941056





000
SAUS45 KLKN 222154
MTRP68
METAR KP68 222153Z AUTO VRB05KT 19/M06 A3014 RMK AO1 SLP167
T01891056





000
SAUS45 KLKN 222054
MTRP68
METAR KP68 222053Z AUTO 00000KT 18/M06 A3014 RMK AO1 SLP167
T01781061 58016





000
SAUS45 KLKN 221955
MTRP68
METAR KP68 221953Z AUTO 07005KT 16/M06 A3016 RMK AO1 SLP179
T01611056





000
SAUS45 KLKN 221854
MTRP68
METAR KP68 221853Z AUTO 10003KT 15/M07 A3019 RMK AO1 SLP192
T01501067





000
SAUS45 KLKN 221754
MTRP68
METAR KP68 221753Z AUTO 00000KT 12/M08 A3020 RMK AO1 SLP200
T01171083 10122 21033 58003





000
SAUS45 KLKN 221754
MTRP68
METAR KP68 221753Z AUTO 00000KT 12/M08 A3020 RMK AO1 SLP200
T01171083 10122 21033 58003





000
SAUS45 KLKN 221654
MTRP68
METAR KP68 221653Z AUTO 00000KT 09/M09 A3020 RMK AO1 SLP208
T00941089





000
SAUS45 KLKN 221654
MTRP68
METAR KP68 221653Z AUTO 00000KT 09/M09 A3020 RMK AO1 SLP208
T00941089





000
SAUS45 KLKN 221554
MTRP68
METAR KP68 221553Z AUTO 00000KT 04/M09 A3021 RMK AO1 SLP213
T00441089





000
SAUS45 KLKN 221554
MTRP68
METAR KP68 221553Z AUTO 00000KT 04/M09 A3021 RMK AO1 SLP213
T00441089





000
SAUS45 KLKN 221455
MTRP68
METAR KP68 221453Z AUTO 00000KT 01/M11 A3021 RMK AO1 SLP218
T00111106 53013





000
SAUS45 KLKN 221355
MTRP68
METAR KP68 221353Z AUTO 26004KT M03/M12 A3018 RMK AO1 SLP213
T10331117





000
SAUS45 KLKN 221258 COR
MTRP68
METAR KP68 221253Z AUTO 20006KT 00/M10 A3017 RMK AO1 SLP195
T00001100





000
SAUS45 KLKN 221256 COR
MTRP68
METAR KP68 221253Z AUTO 20006KT 00/M10 A3017 RMK AO1 SLP195
T00001100





000
SAUS45 KLKN 221255 COR
MTRP68
METAR KP68 221253Z AUTO 20006KT 00/M10 A3017 RMK AO1 SLP195
T00001100





000
SAUS45 KLKN 221154
MTRP68
METAR KP68 221153Z AUTO 20006KT M01/M10 A3016 RMK AO1 SLP187
T10061100 10011 21022 53006





000
SAUS45 KLKN 221054
MTRP68
METAR KP68 221053Z AUTO 20005KT 01/M11 A3015 RMK AO1 SLP173
T00061106





000
SAUS45 KLKN 220954
MTRP68
METAR KP68 220953Z AUTO 18006KT M01/M11 A3014 RMK AO1 SLP173
T10061111





000
SAUS45 KLKN 220954
MTRP68
METAR KP68 220953Z AUTO 18006KT M01/M11 A3014 RMK AO1 SLP173
T10061111





000
SAUS45 KLKN 220854
MTRP68
METAR KP68 220853Z AUTO 18004KT 01/M11 A3014 RMK AO1 SLP171
T00111111 51005





000
SAUS45 KLKN 220754
MTRP68
METAR KP68 220753Z AUTO 20006KT 00/M11 A3014 RMK AO1 SLP174
T00001111 401671011





000
SAUS45 KLKN 220655
MTRP68
METAR KP68 220653Z AUTO 18005KT M01/M12 A3013 RMK AO1 SLP175
T10111122





000
SAUS45 KLKN 220554
MTRP68
METAR KP68 220553Z AUTO 16003KT 00/M09 A3012 RMK AO1 SLP172
T00001089 10122 20000 53008





000
SAUS45 KLKN 220554
MTRP68
METAR KP68 220553Z AUTO 16003KT 00/M09 A3012 RMK AO1 SLP172
T00001089 10122 20000 53008





000
SAUS45 KLKN 220454
MTRP68
METAR KP68 220453Z AUTO 16004KT 01/M09 A3011 RMK AO1 SLP170
T00061094





000
SAUS45 KLKN 220454
MTRP68
METAR KP68 220453Z AUTO 16004KT 01/M09 A3011 RMK AO1 SLP170
T00061094





000
SAUS45 KLKN 220354
MTRP68
METAR KP68 220353Z AUTO 00000KT 03/M09 A3010 RMK AO1 SLP165
T00281094





000
SAUS45 KLKN 220254
MTRP68
METAR KP68 220253Z AUTO 00000KT 04/M11 A3009 RMK AO1 SLP165
T00441106 53013





000
SAUS45 KLKN 220254
MTRP68
METAR KP68 220253Z AUTO 00000KT 04/M11 A3009 RMK AO1 SLP165
T00441106 53013





000
SAUS45 KLKN 220154
MTRP68
METAR KP68 220153Z AUTO 32005KT 07/M11 A3007 RMK AO1 SLP162
T00721106





000
SAUS45 KLKN 220154
MTRP68
METAR KP68 220153Z AUTO 32005KT 07/M11 A3007 RMK AO1 SLP162
T00721106





000
SAUS45 KLKN 220055
MTRP68
METAR KP68 220053Z AUTO 04006KT 10/M10 A3007 RMK AO1 SLP155
T01001100





000
SAUS45 KLKN 212354
MTRP68
METAR KP68 212353Z AUTO 05011KT 12/M10 A3005 RMK AO1 SLP135
T01221100 10167 20122 55001





000
SAUS45 KLKN 212254
MTRP68
METAR KP68 212253Z AUTO 34009KT 17/M13 A3004 RMK AO1 SLP118
T01671128





000
SAUS45 KLKN 212254
MTRP68
METAR KP68 212253Z AUTO 34009KT 17/M13 A3004 RMK AO1 SLP118
T01671128





000
SAUS45 KLKN 212155
MTRP68
METAR KP68 212153Z AUTO 31010G16KT 17/M13 A3004 RMK AO1 SLP109
T01671128





000
SAUS45 KLKN 212155
MTRP68
METAR KP68 212153Z AUTO 31010G16KT 17/M13 A3004 RMK AO1 SLP109
T01671128





000
SAUS45 KLKN 212054
MTRP68
METAR KP68 212053Z AUTO 29010G18KT 16/M13 A3005 RMK AO1 SLP117
T01561128 56010





000
SAUS45 KLKN 211954
MTRP68
METAR KP68 211953Z AUTO 32015G21KT 15/M13 A3006 RMK AO1 SLP120
T01501128





000
SAUS45 KLKN 211854
MTRP68
METAR KP68 211853Z AUTO 28006KT 14/M13 A3008 RMK AO1 SLP123
T01391133





000
SAUS45 KLKN 211755
MTRP68
METAR KP68 211753Z AUTO 26010KT 13/M11 A3009 RMK AO1 SLP127
T01331106 10139 20017 50000





000
SAUS45 KLKN 211654
MTRP68
METAR KP68 211653Z AUTO 00000KT 12/M08 A3010 RMK AO1 SLP138
T01171083





000
SAUS45 KLKN 211654
MTRP68
METAR KP68 211653Z AUTO 00000KT 12/M08 A3010 RMK AO1 SLP138
T01171083





000
SAUS45 KLKN 211554
MTRP68
METAR KP68 211553Z AUTO 35005KT 10/M02 A3011 RMK AO1 SLP144
T01001022





000
SAUS45 KLKN 211554
MTRP68
METAR KP68 211553Z AUTO 35005KT 10/M02 A3011 RMK AO1 SLP144
T01001022





000
SAUS45 KLKN 211454
MTRP68
METAR KP68 211453Z AUTO 00000KT 07/M02 A3009 RMK AO1 SLP142
T00721022 53015





000
SAUS45 KLKN 211355
MTRP68
METAR KP68 211353Z AUTO 12006KT 02/M03 A3007 RMK AO1 SLP138
T00221033





000
SAUS45 KLKN 211255
MTRP68
METAR KP68 211253Z AUTO 13004KT 02/M03 A3005 RMK AO1 SLP130
T00221033





    US Dept of Commerce
    National Oceanic and Atmospheric Administration
    National Weather Service
    1325 East West Highway
    Silver Spring, MD 20910
    Page Author: NWS Internet Services Team
Disclaimer
Information Quality
Credits
Glossary
Privacy Policy
Freedom of Information Act (FOIA)
About Us
Career Opportunities